createdAt,value
2022-11-24T00:02:07.220Z,100064.72
2022-11-24T00:04:54.852Z,100060.47
2022-11-24T00:07:42.299Z,100063.41
2022-11-24T00:10:29.676Z,100059.13
2022-11-24T00:13:17.205Z,100062.59
2022-11-24T00:16:09.233Z,100070.88
2022-11-24T00:18:57.844Z,100065.53
2022-11-24T00:21:45.157Z,100076.47
2022-11-24T00:24:32.914Z,100076.19
2022-11-24T00:27:20.765Z,100072.72
2022-11-24T00:30:09.962Z,100078.06
2022-11-24T00:32:57.319Z,100075.69
2022-11-24T00:35:46.640Z,100079.13
2022-11-24T00:38:34.828Z,100084.47
2022-11-24T00:41:23.107Z,100077.50
2022-11-24T00:44:10.630Z,100088.44
2022-11-24T00:46:58.204Z,100087.91
2022-11-24T00:49:45.711Z,100095.38
2022-11-24T00:52:33.235Z,100091.09
2022-11-24T00:55:21.135Z,100098.31
2022-11-24T00:58:10.235Z,100098.88
2022-11-24T01:01:06.648Z,100099.13
2022-11-24T01:03:57.388Z,100106.03
2022-11-24T01:06:44.731Z,100108.97
2022-11-24T01:09:32.094Z,100108.97
2022-11-24T01:12:19.454Z,100107.91
2022-11-24T01:15:07.405Z,100107.91
2022-11-24T01:17:55.177Z,100112.72
2022-11-24T01:20:42.572Z,100107.91
2022-11-24T01:23:30.044Z,100113.50
2022-11-24T01:26:25.977Z,100123.09
2022-11-24T01:29:15.097Z,100111.88
2022-11-24T01:32:03.775Z,100121.22
2022-11-24T01:34:51.223Z,100122.56
2022-11-24T01:37:38.586Z,100121.50
2022-11-24T01:40:26.391Z,100135.09
2022-11-24T01:43:19.824Z,100135.63
2022-11-24T01:46:31.650Z,100134.28
2022-11-24T01:49:24.684Z,100134.56
2022-11-24T01:52:31.393Z,100130.31
2022-11-24T01:55:23.081Z,100129.22
2022-11-24T01:58:19.115Z,100138.28
2022-11-24T02:01:06.668Z,100140.41
2022-11-24T02:03:54.332Z,100136.69
2022-11-24T02:06:43.978Z,100141.50
2022-11-24T02:09:58.363Z,100145.22
2022-11-24T02:12:48.911Z,100142.56
2022-11-24T02:15:36.374Z,100147.91
2022-11-24T02:18:23.827Z,100145.50
2022-11-24T02:21:14.577Z,100146.53
2022-11-24T02:24:24.177Z,100139.31
2022-11-24T02:27:11.998Z,100142.53
2022-11-24T02:30:00.253Z,100142.78
2022-11-24T02:32:47.958Z,100140.69
2022-11-24T02:35:35.417Z,100150.78
2022-11-24T02:38:33.819Z,100148.94
2022-11-24T02:41:24.424Z,100156.94
2022-11-24T02:44:15.990Z,100146.81
2022-11-24T02:47:09.205Z,100151.06
2022-11-24T02:49:57.634Z,100145.72
2022-11-24T02:52:45.240Z,100140.91
2022-11-24T02:55:33.297Z,100143.28
2022-11-24T02:58:21.286Z,100138.22
2022-11-24T03:01:09.413Z,100128.88
2022-11-24T03:03:56.896Z,100139.81
2022-11-24T03:06:45.684Z,100125.41
2022-11-24T03:09:33.099Z,100131.81
2022-11-24T03:12:21.855Z,100127.28
2022-11-24T03:15:09.736Z,100127.53
2022-11-24T03:17:57.114Z,100131.22
2022-11-24T03:20:44.587Z,100137.91
2022-11-24T03:23:31.963Z,100133.09
2022-11-24T03:26:23.262Z,100132.03
2022-11-24T03:29:10.768Z,100136.28
2022-11-24T03:31:58.955Z,100144.81
2022-11-24T03:34:46.354Z,100143.78
2022-11-24T03:37:33.755Z,100149.34
2022-11-24T03:40:21.384Z,100154.69
2022-11-24T03:43:09.036Z,100150.66
2022-11-24T03:45:56.737Z,100152.53
2022-11-24T03:48:44.137Z,100161.06
2022-11-24T03:51:32.012Z,100154.69
2022-11-24T03:54:19.487Z,100145.09
2022-11-24T03:57:06.991Z,100158.44
2022-11-24T03:59:54.501Z,100154.19
2022-11-24T04:02:41.948Z,100166.19
2022-11-24T04:05:29.667Z,100159.53
2022-11-24T04:08:20.544Z,100168.13
2022-11-24T04:11:07.953Z,100167.84
2022-11-24T04:13:55.372Z,100169.16
2022-11-24T04:16:43.310Z,100170.53
2022-11-24T04:19:31.030Z,100172.44
2022-11-24T04:22:18.817Z,100170.03
2022-11-24T04:25:07.827Z,100174.06
2022-11-24T04:27:56.139Z,100182.53
2022-11-24T04:30:45.130Z,100181.50
2022-11-24T04:33:33.245Z,100183.59
2022-11-24T04:36:20.715Z,100176.69
2022-11-24T04:39:19.796Z,100187.91
2022-11-24T04:42:12.803Z,100189.75
2022-11-24T04:45:00.674Z,100191.91
2022-11-24T04:47:48.064Z,100180.97
2022-11-24T04:50:37.506Z,100190.81
2022-11-24T04:53:25.002Z,100196.41
2022-11-24T04:56:12.722Z,100206.56
2022-11-24T04:59:06.658Z,100204.97
2022-11-24T05:01:55.516Z,100211.88
2022-11-24T05:04:43.514Z,100205.50
2022-11-24T05:07:30.969Z,100207.09
2022-11-24T05:10:36.828Z,100212.44
2022-11-24T05:13:24.216Z,100212.44
2022-11-24T05:16:12.323Z,100214.31
2022-11-24T05:18:59.892Z,100213.22
2022-11-24T05:21:48.680Z,100218.56
2022-11-24T05:24:36.277Z,100217.72
2022-11-24T05:27:33.244Z,100221.47
2022-11-24T05:30:20.588Z,100225.75
2022-11-24T05:33:11.546Z,100234.31
2022-11-24T05:36:08.926Z,100233.22
2022-11-24T05:38:56.245Z,100234.28
2022-11-24T05:41:43.603Z,100232.16
2022-11-24T05:44:31.145Z,100234.81
2022-11-24T05:47:19.121Z,100232.91
2022-11-24T05:50:07.491Z,100237.47
2022-11-24T05:52:55.018Z,100239.09
2022-11-24T05:55:43.210Z,100245.47
2022-11-24T05:58:30.591Z,100250.31
2022-11-24T06:01:17.995Z,100251.34
2022-11-24T06:04:05.515Z,100255.63
2022-11-24T06:06:53.190Z,100251.88
2022-11-24T06:09:42.042Z,100254.00
2022-11-24T06:12:29.980Z,100254.00
2022-11-24T06:15:17.811Z,100264.94
2022-11-24T06:18:05.637Z,100258.28
2022-11-24T06:21:09.899Z,100271.63
2022-11-24T06:23:58.844Z,100272.69
2022-11-24T06:26:46.225Z,100285.25
2022-11-24T06:29:33.807Z,100288.75
2022-11-24T06:32:21.350Z,100288.75
2022-11-24T06:35:08.826Z,100284.44
2022-11-24T06:37:56.118Z,100294.28
2022-11-24T06:40:43.479Z,100293.50
2022-11-24T06:43:30.927Z,100298.31
2022-11-24T06:46:18.431Z,100293.81
2022-11-24T06:49:05.851Z,100296.47
2022-11-24T06:51:55.215Z,100303.97
2022-11-24T06:54:43.535Z,100299.38
2022-11-24T06:57:31.616Z,100301.56
2022-11-24T07:00:19.246Z,100294.88
2022-11-24T07:03:06.666Z,100306.84
2022-11-24T07:05:58.326Z,100309.00
2022-11-24T07:08:46.442Z,100307.69
2022-11-24T07:11:33.959Z,100314.88
2022-11-24T07:14:21.718Z,100326.09
2022-11-24T07:17:09.004Z,100326.09
2022-11-24T07:19:56.372Z,100332.25
2022-11-24T07:22:43.828Z,100338.66
2022-11-24T07:25:32.635Z,100339.19
2022-11-24T07:28:20.000Z,100342.41
2022-11-24T07:31:16.231Z,100349.03
2022-11-24T07:34:04.025Z,100349.03
2022-11-24T07:36:51.626Z,100349.63
2022-11-24T07:39:39.082Z,100348.56
2022-11-24T07:42:26.607Z,100350.91
2022-11-24T07:45:14.202Z,100357.88
2022-11-24T07:48:01.518Z,100356.28
2022-11-24T07:50:55.307Z,100369.09
2022-11-24T07:53:44.148Z,100376.81
2022-11-24T07:56:31.447Z,100374.16
2022-11-24T07:59:18.916Z,100381.09
2022-11-24T08:02:06.568Z,100378.41
2022-11-24T08:04:54.175Z,100388.00
2022-11-24T08:07:41.589Z,100377.88
2022-11-24T08:10:28.962Z,100380.00
2022-11-24T08:13:16.506Z,100379.94
2022-11-24T08:16:09.448Z,100385.31
2022-11-24T08:18:57.072Z,100386.38
2022-11-24T08:21:44.457Z,100395.19
2022-11-24T08:24:32.201Z,100401.81
2022-11-24T08:27:20.335Z,100399.69
2022-11-24T08:30:08.908Z,100401.81
2022-11-24T08:33:00.772Z,100396.75
2022-11-24T08:35:48.197Z,100406.09
2022-11-24T08:38:36.564Z,100413.81
2022-11-24T08:41:25.080Z,100414.09
2022-11-24T08:44:15.939Z,100422.56
2022-11-24T08:47:03.611Z,100424.19
2022-11-24T08:49:51.077Z,100426.03
2022-11-24T08:52:38.627Z,100434.81
2022-11-24T08:55:26.053Z,100443.44
2022-11-24T08:58:14.927Z,100449.06
2022-11-24T09:01:09.644Z,100460.00
2022-11-24T09:03:58.287Z,100458.09
2022-11-24T09:06:45.852Z,100469.09
2022-11-24T09:09:33.209Z,100470.13
2022-11-24T09:27:39.452Z,100471.97
2022-11-24T09:30:27.517Z,100472.78
2022-11-24T09:33:15.186Z,100472.16
2022-11-24T09:36:03.924Z,100443.63
2022-11-24T09:38:52.520Z,100466.22
2022-11-24T09:41:57.224Z,100468.38
2022-11-24T09:44:53.851Z,100472.66
2022-11-24T09:48:03.340Z,100484.06
2022-11-24T09:50:52.812Z,100483.19
2022-11-24T09:53:53.207Z,100471.91
2022-11-24T09:56:42.573Z,100511.31
2022-11-24T09:59:31.924Z,100461.41
2022-11-24T10:02:19.731Z,100489.72
2022-11-24T10:05:08.246Z,100490.94
2022-11-24T10:08:27.907Z,100497.38
2022-11-24T10:11:22.461Z,100540.22
2022-11-24T10:14:24.547Z,100551.03
2022-11-24T10:17:27.558Z,100555.63
2022-11-24T10:20:42.358Z,100562.53
2022-11-24T10:23:41.908Z,100565.66
2022-11-24T10:26:47.222Z,100550.16
2022-11-24T10:29:40.727Z,100573.06
2022-11-24T10:32:39.575Z,100566.25
2022-11-24T10:35:38.961Z,100580.41
2022-11-24T10:38:51.676Z,100558.78
2022-11-24T10:41:53.568Z,100557.19
2022-11-24T10:44:42.715Z,100589.59
2022-11-24T10:47:31.429Z,100550.91
2022-11-24T10:50:29.232Z,100581.69
2022-11-24T10:53:30.373Z,100566.19
2022-11-24T10:56:18.870Z,100567.97
2022-11-24T10:59:31.228Z,100603.78
2022-11-24T11:02:28.068Z,100609.69
2022-11-24T11:05:42.571Z,100581.91
2022-11-24T11:08:32.570Z,100614.13
2022-11-24T11:11:29.416Z,100613.50
2022-11-24T11:14:52.633Z,100569.22
2022-11-24T11:17:41.521Z,100628.16
2022-11-24T11:20:33.768Z,100624.38
2022-11-24T11:23:28.007Z,100601.81
2022-11-24T11:26:25.076Z,100630.34
2022-11-24T11:35:37.922Z,100632.47
2022-11-24T11:38:36.374Z,100611.28
2022-11-24T11:41:34.136Z,100627.25
2022-11-24T11:44:48.577Z,100615.47
2022-11-24T11:47:45.751Z,100635.78
2022-11-24T11:54:25.477Z,100656.28
2022-11-24T11:57:28.307Z,100658.16
2022-11-24T12:00:27.903Z,100655.41
2022-11-24T12:03:31.377Z,100671.13
2022-11-24T12:06:39.363Z,100666.41
2022-11-24T12:09:56.236Z,100628.06
2022-11-24T12:13:14.713Z,100670.31
2022-11-24T12:16:17.610Z,100634.81
2022-11-24T12:19:11.498Z,100684.94
2022-11-24T12:22:22.867Z,100693.44
2022-11-24T12:25:28.705Z,100676.47
2022-11-24T12:28:49.225Z,100675.06
2022-11-24T12:32:24.939Z,100676.28
2022-11-24T12:35:22.314Z,100754.09
2022-11-24T12:38:23.883Z,100756.84
2022-11-24T12:41:40.410Z,100779.09
2022-11-24T12:44:57.298Z,100753.75
2022-11-24T12:48:09.212Z,100813.63
2022-11-24T12:51:01.948Z,100753.69
2022-11-24T12:53:53.137Z,100790.88
2022-11-24T12:56:57.759Z,100828.00
2022-11-24T13:00:08.518Z,100809.28
2022-11-24T13:03:05.728Z,100838.03
2022-11-24T13:06:01.532Z,100822.34
2022-11-24T13:08:49.682Z,100826.00
2022-11-24T13:11:39.045Z,100848.66
2022-11-24T13:14:37.817Z,100827.38
2022-11-24T13:17:52.452Z,100859.59
2022-11-24T13:20:46.261Z,100836.00
2022-11-24T13:23:34.239Z,100867.66
2022-11-24T13:26:53.014Z,100869.72
2022-11-24T13:29:43.315Z,100863.38
2022-11-24T13:32:47.660Z,100862.47
2022-11-24T13:35:35.520Z,100861.31
2022-11-24T13:38:54.662Z,100875.22
2022-11-24T13:41:42.624Z,100888.13
2022-11-24T13:44:43.860Z,100883.44
2022-11-24T13:47:36.125Z,100873.97
2022-11-24T13:50:45.849Z,100852.44
2022-11-24T13:53:46.029Z,100880.41
2022-11-24T13:56:33.622Z,100873.66
2022-11-24T13:59:37.135Z,100886.84
2022-11-24T14:02:24.899Z,100878.81
2022-11-24T14:05:25.043Z,100836.22
2022-11-24T14:08:24.555Z,100840.47
2022-11-24T14:11:19.321Z,100839.66
2022-11-24T14:14:26.799Z,100836.59
